sensor_id;sensor_type;location;lat;lon;timestamp;temperature;humidity
1592;DHT22;789;51.612;7.510;2023-05-02T00:00:59;14.30;1.00
1592;DHT22;789;51.612;7.510;2023-05-02T00:03:29;14.30;1.00
1592;DHT22;789;51.612;7.510;2023-05-02T00:05:56;14.30;1.00
1592;DHT22;789;51.612;7.510;2023-05-02T00:08:22;14.30;1.00
1592;DHT22;789;51.612;7.510;2023-05-02T00:10:49;14.40;1.00
1592;DHT22;789;51.612;7.510;2023-05-02T00:13:17;14.40;1.00
1592;DHT22;789;51.612;7.510;2023-05-02T00:15:44;14.30;1.00
1592;DHT22;789;51.612;7.510;2023-05-02T00:18:10;14.20;1.00
1592;DHT22;789;51.612;7.510;2023-05-02T00:20:38;14.10;1.00
1592;DHT22;789;51.612;7.510;2023-05-02T00:23:06;14.10;1.00
1592;DHT22;789;51.612;7.510;2023-05-02T00:25:32;14.00;1.00
1592;DHT22;789;51.612;7.510;2023-05-02T00:27:59;14.00;1.00
1592;DHT22;789;51.612;7.510;2023-05-02T00:30:27;13.80;1.00
1592;DHT22;789;51.612;7.510;2023-05-02T00:32:54;13.70;1.00
1592;DHT22;789;51.612;7.510;2023-05-02T00:35:21;13.60;1.00
1592;DHT22;789;51.612;7.510;2023-05-02T00:37:47;13.50;1.00
1592;DHT22;789;51.612;7.510;2023-05-02T00:40:14;13.50;1.00
1592;DHT22;789;51.612;7.510;2023-05-02T00:42:41;13.40;1.00
1592;DHT22;789;51.612;7.510;2023-05-02T00:45:08;13.40;1.00
1592;DHT22;789;51.612;7.510;2023-05-02T00:47:37;13.30;1.00
1592;DHT22;789;51.612;7.510;2023-05-02T00:50:05;13.40;1.00
1592;DHT22;789;51.612;7.510;2023-05-02T00:52:32;13.40;1.00
1592;DHT22;789;51.612;7.510;2023-05-02T00:55:00;13.40;1.00
1592;DHT22;789;51.612;7.510;2023-05-02T00:57:27;13.50;1.00
1592;DHT22;789;51.612;7.510;2023-05-02T00:59:55;13.40;1.00
1592;DHT22;789;51.612;7.510;2023-05-02T01:02:31;13.50;1.00
1592;DHT22;789;51.612;7.510;2023-05-02T01:05:09;13.30;1.00
1592;DHT22;789;51.612;7.510;2023-05-02T01:07:50;13.30;1.00
1592;DHT22;789;51.612;7.510;2023-05-02T01:10:26;13.30;1.00
1592;DHT22;789;51.612;7.510;2023-05-02T01:12:59;13.20;1.00
1592;DHT22;789;51.612;7.510;2023-05-02T01:15:30;13.20;1.00
1592;DHT22;789;51.612;7.510;2023-05-02T01:17:59;13.10;1.00
1592;DHT22;789;51.612;7.510;2023-05-02T01:20:29;13.00;1.00
1592;DHT22;789;51.612;7.510;2023-05-02T01:23:04;13.00;1.00
1592;DHT22;789;51.612;7.510;2023-05-02T01:25:39;13.00;1.00
1592;DHT22;789;51.612;7.510;2023-05-02T01:28:18;13.10;1.00
1592;DHT22;789;51.612;7.510;2023-05-02T01:30:49;12.90;1.00
1592;DHT22;789;51.612;7.510;2023-05-02T01:33:16;12.80;1.00
1592;DHT22;789;51.612;7.510;2023-05-02T01:35:45;12.80;1.00
1592;DHT22;789;51.612;7.510;2023-05-02T01:38:15;12.90;1.00
1592;DHT22;789;51.612;7.510;2023-05-02T01:40:44;12.90;1.00
1592;DHT22;789;51.612;7.510;2023-05-02T01:43:13;12.90;1.00
1592;DHT22;789;51.612;7.510;2023-05-02T01:45:42;12.90;1.00
1592;DHT22;789;51.612;7.510;2023-05-02T01:48:12;12.80;1.00
1592;DHT22;789;51.612;7.510;2023-05-02T01:50:40;12.80;1.00
1592;DHT22;789;51.612;7.510;2023-05-02T01:53:10;12.80;1.00
1592;DHT22;789;51.612;7.510;2023-05-02T01:55:42;12.90;1.00
1592;DHT22;789;51.612;7.510;2023-05-02T01:58:10;12.90;1.00
1592;DHT22;789;51.612;7.510;2023-05-02T02:00:38;12.90;1.00
1592;DHT22;789;51.612;7.510;2023-05-02T02:03:06;12.90;1.00
1592;DHT22;789;51.612;7.510;2023-05-02T02:05:36;12.90;1.00
1592;DHT22;789;51.612;7.510;2023-05-02T02:08:03;12.90;1.00
1592;DHT22;789;51.612;7.510;2023-05-02T02:10:35;13.00;1.00
1592;DHT22;789;51.612;7.510;2023-05-02T02:13:06;13.10;1.00
1592;DHT22;789;51.612;7.510;2023-05-02T02:15:39;13.10;1.00
1592;DHT22;789;51.612;7.510;2023-05-02T02:18:09;13.20;1.00
1592;DHT22;789;51.612;7.510;2023-05-02T02:20:42;13.10;1.00
1592;DHT22;789;51.612;7.510;2023-05-02T02:23:11;13.10;1.00
1592;DHT22;789;51.612;7.510;2023-05-02T02:25:39;13.10;1.00
1592;DHT22;789;51.612;7.510;2023-05-02T02:28:06;13.10;1.00
1592;DHT22;789;51.612;7.510;2023-05-02T02:30:33;13.20;1.00
1592;DHT22;789;51.612;7.510;2023-05-02T02:33:00;13.20;1.00
1592;DHT22;789;51.612;7.510;2023-05-02T02:35:30;13.10;1.00
1592;DHT22;789;51.612;7.510;2023-05-02T02:38:06;13.00;1.00
1592;DHT22;789;51.612;7.510;2023-05-02T02:40:41;12.90;1.00
1592;DHT22;789;51.612;7.510;2023-05-02T02:43:16;12.80;1.00
1592;DHT22;789;51.612;7.510;2023-05-02T02:45:49;12.80;1.00
1592;DHT22;789;51.612;7.510;2023-05-02T02:48:26;12.80;1.00
1592;DHT22;789;51.612;7.510;2023-05-02T02:51:06;12.80;1.00
1592;DHT22;789;51.612;7.510;2023-05-02T02:53:46;12.70;1.00
1592;DHT22;789;51.612;7.510;2023-05-02T02:56:24;12.70;1.00
1592;DHT22;789;51.612;7.510;2023-05-02T02:58:56;12.80;1.00
1592;DHT22;789;51.612;7.510;2023-05-02T03:01:26;12.80;1.00
1592;DHT22;789;51.612;7.510;2023-05-02T03:03:56;12.80;1.00
1592;DHT22;789;51.612;7.510;2023-05-02T03:06:24;12.80;1.00
1592;DHT22;789;51.612;7.510;2023-05-02T03:08:53;12.90;1.00
1592;DHT22;789;51.612;7.510;2023-05-02T03:11:20;12.90;1.00
1592;DHT22;789;51.612;7.510;2023-05-02T03:13:46;12.90;1.00
1592;DHT22;789;51.612;7.510;2023-05-02T03:16:34;12.90;1.00
1592;DHT22;789;51.612;7.510;2023-05-02T03:19:01;12.90;1.00
1592;DHT22;789;51.612;7.510;2023-05-02T03:21:28;12.80;1.00
1592;DHT22;789;51.612;7.510;2023-05-02T03:23:57;12.80;1.00
1592;DHT22;789;51.612;7.510;2023-05-02T03:26:24;12.70;1.00
1592;DHT22;789;51.612;7.510;2023-05-02T03:28:51;12.80;1.00
1592;DHT22;789;51.612;7.510;2023-05-02T03:31:18;12.70;1.00
1592;DHT22;789;51.612;7.510;2023-05-02T03:33:44;12.80;1.00
1592;DHT22;789;51.612;7.510;2023-05-02T03:36:11;12.80;1.00
1592;DHT22;789;51.612;7.510;2023-05-02T03:38:38;12.80;1.00
1592;DHT22;789;51.612;7.510;2023-05-02T03:41:06;12.80;1.00
1592;DHT22;789;51.612;7.510;2023-05-02T03:43:33;12.90;1.00
1592;DHT22;789;51.612;7.510;2023-05-02T03:46:04;13.00;1.00
1592;DHT22;789;51.612;7.510;2023-05-02T03:48:32;13.00;1.00
1592;DHT22;789;51.612;7.510;2023-05-02T03:51:00;13.00;1.00
1592;DHT22;789;51.612;7.510;2023-05-02T03:53:26;13.00;1.00
1592;DHT22;789;51.612;7.510;2023-05-02T03:55:54;13.00;1.00
1592;DHT22;789;51.612;7.510;2023-05-02T03:58:22;13.00;1.00
1592;DHT22;789;51.612;7.510;2023-05-02T04:00:49;13.10;1.00
1592;DHT22;789;51.612;7.510;2023-05-02T04:03:17;12.90;1.00
1592;DHT22;789;51.612;7.510;2023-05-02T04:05:44;12.90;1.00
1592;DHT22;789;51.612;7.510;2023-05-02T04:08:10;12.90;1.00
1592;DHT22;789;51.612;7.510;2023-05-02T04:10:37;12.80;1.00
1592;DHT22;789;51.612;7.510;2023-05-02T04:13:04;12.80;1.00
1592;DHT22;789;51.612;7.510;2023-05-02T04:15:32;12.80;1.00
1592;DHT22;789;51.612;7.510;2023-05-02T04:17:59;12.80;1.00
1592;DHT22;789;51.612;7.510;2023-05-02T04:20:26;12.90;1.00
1592;DHT22;789;51.612;7.510;2023-05-02T04:22:53;12.80;1.00
1592;DHT22;789;51.612;7.510;2023-05-02T04:25:19;12.90;1.00
1592;DHT22;789;51.612;7.510;2023-05-02T04:27:46;12.80;1.00
1592;DHT22;789;51.612;7.510;2023-05-02T04:30:13;12.70;1.00
1592;DHT22;789;51.612;7.510;2023-05-02T04:32:41;12.70;1.00
1592;DHT22;789;51.612;7.510;2023-05-02T04:35:08;12.70;1.00
1592;DHT22;789;51.612;7.510;2023-05-02T04:37:37;12.80;1.00
1592;DHT22;789;51.612;7.510;2023-05-02T04:40:05;12.90;1.00
1592;DHT22;789;51.612;7.510;2023-05-02T04:42:32;12.90;1.00
1592;DHT22;789;51.612;7.510;2023-05-02T04:44:59;12.90;1.00
1592;DHT22;789;51.612;7.510;2023-05-02T04:47:26;12.80;1.00
1592;DHT22;789;51.612;7.510;2023-05-02T04:49:54;12.80;1.00
1592;DHT22;789;51.612;7.510;2023-05-02T04:52:21;12.80;1.00
1592;DHT22;789;51.612;7.510;2023-05-02T04:54:48;12.70;1.00
1592;DHT22;789;51.612;7.510;2023-05-02T04:57:14;12.70;1.00
1592;DHT22;789;51.612;7.510;2023-05-02T04:59:41;12.80;1.00
1592;DHT22;789;51.612;7.510;2023-05-02T05:02:08;12.80;1.00
1592;DHT22;789;51.612;7.510;2023-05-02T05:04:36;12.70;1.00
1592;DHT22;789;51.612;7.510;2023-05-02T05:07:05;12.70;1.00
1592;DHT22;789;51.612;7.510;2023-05-02T05:09:33;12.70;1.00
1592;DHT22;789;51.612;7.510;2023-05-02T05:12:00;12.70;1.00
1592;DHT22;789;51.612;7.510;2023-05-02T05:14:27;12.60;1.00
1592;DHT22;789;51.612;7.510;2023-05-02T05:16:55;12.70;1.00
1592;DHT22;789;51.612;7.510;2023-05-02T05:19:22;12.60;1.00
1592;DHT22;789;51.612;7.510;2023-05-02T05:21:49;12.60;1.00
1592;DHT22;789;51.612;7.510;2023-05-02T05:24:17;12.60;1.00
1592;DHT22;789;51.612;7.510;2023-05-02T05:26:44;12.60;1.00
1592;DHT22;789;51.612;7.510;2023-05-02T05:29:10;12.60;1.00
1592;DHT22;789;51.612;7.510;2023-05-02T05:31:37;12.40;1.00
1592;DHT22;789;51.612;7.510;2023-05-02T05:34:07;12.30;1.00
1592;DHT22;789;51.612;7.510;2023-05-02T05:36:33;12.30;1.00
1592;DHT22;789;51.612;7.510;2023-05-02T05:39:00;12.20;1.00
1592;DHT22;789;51.612;7.510;2023-05-02T05:41:28;12.20;1.00
1592;DHT22;789;51.612;7.510;2023-05-02T05:43:55;12.10;1.00
1592;DHT22;789;51.612;7.510;2023-05-02T05:46:22;12.10;1.00
1592;DHT22;789;51.612;7.510;2023-05-02T05:48:49;12.10;1.00
1592;DHT22;789;51.612;7.510;2023-05-02T05:51:15;12.20;1.00
1592;DHT22;789;51.612;7.510;2023-05-02T05:53:42;12.20;1.00
1592;DHT22;789;51.612;7.510;2023-05-02T05:56:10;12.30;1.00
1592;DHT22;789;51.612;7.510;2023-05-02T05:58:38;12.40;1.00
1592;DHT22;789;51.612;7.510;2023-05-02T06:01:07;12.50;1.00
1592;DHT22;789;51.612;7.510;2023-05-02T06:03:34;12.60;1.00
1592;DHT22;789;51.612;7.510;2023-05-02T06:06:00;12.60;1.00
1592;DHT22;789;51.612;7.510;2023-05-02T06:08:27;12.60;1.00
1592;DHT22;789;51.612;7.510;2023-05-02T06:10:54;12.70;1.00
1592;DHT22;789;51.612;7.510;2023-05-02T06:13:20;12.70;1.00
1592;DHT22;789;51.612;7.510;2023-05-02T06:15:48;12.80;1.00
1592;DHT22;789;51.612;7.510;2023-05-02T06:18:15;12.90;1.00
1592;DHT22;789;51.612;7.510;2023-05-02T06:20:42;13.00;1.00
1592;DHT22;789;51.612;7.510;2023-05-02T06:23:09;13.10;1.00
1592;DHT22;789;51.612;7.510;2023-05-02T06:25:38;13.10;1.00
1592;DHT22;789;51.612;7.510;2023-05-02T06:28:05;13.10;1.00
1592;DHT22;789;51.612;7.510;2023-05-02T06:30:33;13.10;1.00
1592;DHT22;789;51.612;7.510;2023-05-02T06:33:03;13.10;1.00
1592;DHT22;789;51.612;7.510;2023-05-02T06:35:30;13.10;1.00
1592;DHT22;789;51.612;7.510;2023-05-02T06:37:56;13.20;1.00
1592;DHT22;789;51.612;7.510;2023-05-02T06:40:23;13.30;1.00
1592;DHT22;789;51.612;7.510;2023-05-02T06:42:50;13.40;1.00
1592;DHT22;789;51.612;7.510;2023-05-02T06:45:17;13.50;1.00
1592;DHT22;789;51.612;7.510;2023-05-02T06:47:43;13.60;1.00
1592;DHT22;789;51.612;7.510;2023-05-02T06:50:11;13.70;1.00
1592;DHT22;789;51.612;7.510;2023-05-02T06:52:38;13.70;1.00
1592;DHT22;789;51.612;7.510;2023-05-02T06:55:06;13.80;1.00
1592;DHT22;789;51.612;7.510;2023-05-02T06:57:33;13.80;1.00
1592;DHT22;789;51.612;7.510;2023-05-02T06:59:59;13.80;1.00
1592;DHT22;789;51.612;7.510;2023-05-02T07:02:26;13.60;1.00
1592;DHT22;789;51.612;7.510;2023-05-02T07:04:53;13.50;1.00
1592;DHT22;789;51.612;7.510;2023-05-02T07:07:21;13.40;1.00
1592;DHT22;789;51.612;7.510;2023-05-02T07:09:47;13.30;1.00
1592;DHT22;789;51.612;7.510;2023-05-02T07:12:14;13.30;1.00
1592;DHT22;789;51.612;7.510;2023-05-02T07:14:41;13.30;1.00
1592;DHT22;789;51.612;7.510;2023-05-02T07:17:08;13.40;1.00
1592;DHT22;789;51.612;7.510;2023-05-02T07:19:34;13.60;1.00
1592;DHT22;789;51.612;7.510;2023-05-02T07:22:01;13.60;1.00
1592;DHT22;789;51.612;7.510;2023-05-02T07:24:29;13.70;1.00
1592;DHT22;789;51.612;7.510;2023-05-02T07:26:56;13.60;1.00
1592;DHT22;789;51.612;7.510;2023-05-02T07:29:23;13.60;1.00
1592;DHT22;789;51.612;7.510;2023-05-02T07:31:50;13.50;1.00
1592;DHT22;789;51.612;7.510;2023-05-02T07:34:17;13.40;1.00
1592;DHT22;789;51.612;7.510;2023-05-02T07:36:43;13.20;1.00
1592;DHT22;789;51.612;7.510;2023-05-02T07:39:10;13.10;1.00
1592;DHT22;789;51.612;7.510;2023-05-02T07:41:38;12.80;1.00
1592;DHT22;789;51.612;7.510;2023-05-02T07:44:05;12.50;1.00
1592;DHT22;789;51.612;7.510;2023-05-02T07:46:31;12.30;1.00
1592;DHT22;789;51.612;7.510;2023-05-02T07:48:58;12.10;1.00
1592;DHT22;789;51.612;7.510;2023-05-02T07:51:25;11.80;1.00
1592;DHT22;789;51.612;7.510;2023-05-02T07:53:52;11.60;1.00
1592;DHT22;789;51.612;7.510;2023-05-02T07:56:22;11.30;1.00
1592;DHT22;789;51.612;7.510;2023-05-02T07:58:50;11.10;1.00
1592;DHT22;789;51.612;7.510;2023-05-02T08:01:17;10.90;1.00
1592;DHT22;789;51.612;7.510;2023-05-02T08:03:44;10.80;1.00
1592;DHT22;789;51.612;7.510;2023-05-02T08:06:12;10.70;1.00
1592;DHT22;789;51.612;7.510;2023-05-02T08:08:38;10.70;1.00
1592;DHT22;789;51.612;7.510;2023-05-02T08:11:05;10.70;1.00
1592;DHT22;789;51.612;7.510;2023-05-02T08:13:32;10.70;1.00
1592;DHT22;789;51.612;7.510;2023-05-02T08:16:00;10.80;1.00
1592;DHT22;789;51.612;7.510;2023-05-02T08:18:27;11.00;1.00
1592;DHT22;789;51.612;7.510;2023-05-02T08:20:54;11.00;1.00
1592;DHT22;789;51.612;7.510;2023-05-02T08:23:22;11.20;1.00
1592;DHT22;789;51.612;7.510;2023-05-02T08:25:49;11.30;1.00
1592;DHT22;789;51.612;7.510;2023-05-02T08:28:16;11.60;1.00
1592;DHT22;789;51.612;7.510;2023-05-02T08:30:43;11.60;1.00
1592;DHT22;789;51.612;7.510;2023-05-02T08:33:12;11.80;1.00
1592;DHT22;789;51.612;7.510;2023-05-02T08:35:40;12.00;1.00
1592;DHT22;789;51.612;7.510;2023-05-02T08:38:07;12.20;1.00
1592;DHT22;789;51.612;7.510;2023-05-02T08:40:35;12.40;1.00
1592;DHT22;789;51.612;7.510;2023-05-02T08:43:03;12.50;1.00
1592;DHT22;789;51.612;7.510;2023-05-02T08:45:33;12.60;1.00
1592;DHT22;789;51.612;7.510;2023-05-02T08:48:05;12.50;1.00
1592;DHT22;789;51.612;7.510;2023-05-02T08:50:36;12.50;1.00
1592;DHT22;789;51.612;7.510;2023-05-02T08:53:04;12.60;1.00
1592;DHT22;789;51.612;7.510;2023-05-02T08:55:33;12.60;1.00
1592;DHT22;789;51.612;7.510;2023-05-02T08:58:04;12.70;1.00
1592;DHT22;789;51.612;7.510;2023-05-02T09:00:31;12.50;1.00
1592;DHT22;789;51.612;7.510;2023-05-02T09:03:05;12.40;1.00
1592;DHT22;789;51.612;7.510;2023-05-02T09:05:40;12.30;1.00
1592;DHT22;789;51.612;7.510;2023-05-02T09:08:07;12.30;1.00
1592;DHT22;789;51.612;7.510;2023-05-02T09:10:35;12.40;1.00
1592;DHT22;789;51.612;7.510;2023-05-02T09:13:26;12.50;1.00
1592;DHT22;789;51.612;7.510;2023-05-02T09:15:56;12.80;1.00
1592;DHT22;789;51.612;7.510;2023-05-02T09:18:26;13.10;1.00
1592;DHT22;789;51.612;7.510;2023-05-02T09:20:55;13.30;1.00
1592;DHT22;789;51.612;7.510;2023-05-02T09:23:32;13.50;1.00
1592;DHT22;789;51.612;7.510;2023-05-02T09:25:59;13.80;1.00
1592;DHT22;789;51.612;7.510;2023-05-02T09:28:39;13.90;1.00
1592;DHT22;789;51.612;7.510;2023-05-02T09:31:07;13.90;1.00
1592;DHT22;789;51.612;7.510;2023-05-02T09:33:35;14.00;1.00
1592;DHT22;789;51.612;7.510;2023-05-02T09:36:03;14.00;1.00
1592;DHT22;789;51.612;7.510;2023-05-02T09:38:32;13.80;1.00
1592;DHT22;789;51.612;7.510;2023-05-02T09:40:59;13.60;1.00
1592;DHT22;789;51.612;7.510;2023-05-02T09:43:28;13.50;1.00
1592;DHT22;789;51.612;7.510;2023-05-02T09:45:59;13.30;1.00
1592;DHT22;789;51.612;7.510;2023-05-02T09:48:27;13.30;1.00
1592;DHT22;789;51.612;7.510;2023-05-02T09:50:54;13.10;1.00
1592;DHT22;789;51.612;7.510;2023-05-02T09:53:24;13.10;1.00
1592;DHT22;789;51.612;7.510;2023-05-02T09:55:59;13.00;1.00
1592;DHT22;789;51.612;7.510;2023-05-02T09:58:26;12.90;1.00
1592;DHT22;789;51.612;7.510;2023-05-02T10:00:53;12.80;1.00
1592;DHT22;789;51.612;7.510;2023-05-02T10:03:23;12.70;1.00
1592;DHT22;789;51.612;7.510;2023-05-02T10:05:50;12.60;1.00
1592;DHT22;789;51.612;7.510;2023-05-02T10:08:19;12.50;1.00
1592;DHT22;789;51.612;7.510;2023-05-02T10:10:51;12.40;1.00
1592;DHT22;789;51.612;7.510;2023-05-02T10:13:19;12.40;1.00
1592;DHT22;789;51.612;7.510;2023-05-02T10:15:49;12.40;1.00
1592;DHT22;789;51.612;7.510;2023-05-02T10:18:20;12.60;1.00
1592;DHT22;789;51.612;7.510;2023-05-02T10:20:56;12.70;1.00
1592;DHT22;789;51.612;7.510;2023-05-02T10:23:25;12.90;1.00
1592;DHT22;789;51.612;7.510;2023-05-02T10:25:54;13.00;1.00
1592;DHT22;789;51.612;7.510;2023-05-02T10:28:21;13.10;1.00
1592;DHT22;789;51.612;7.510;2023-05-02T10:30:48;13.20;1.00
1592;DHT22;789;51.612;7.510;2023-05-02T10:33:16;13.30;1.00
1592;DHT22;789;51.612;7.510;2023-05-02T10:35:44;13.30;1.00
1592;DHT22;789;51.612;7.510;2023-05-02T10:38:13;13.20;1.00
1592;DHT22;789;51.612;7.510;2023-05-02T10:40:42;13.20;1.00
1592;DHT22;789;51.612;7.510;2023-05-02T10:43:15;13.10;1.00
1592;DHT22;789;51.612;7.510;2023-05-02T10:45:42;12.90;1.00
1592;DHT22;789;51.612;7.510;2023-05-02T10:48:17;12.90;1.00
1592;DHT22;789;51.612;7.510;2023-05-02T10:50:46;12.90;1.00
1592;DHT22;789;51.612;7.510;2023-05-02T10:53:23;13.00;1.00
1592;DHT22;789;51.612;7.510;2023-05-02T10:56:20;13.10;1.00
1592;DHT22;789;51.612;7.510;2023-05-02T10:58:49;13.20;1.00
1592;DHT22;789;51.612;7.510;2023-05-02T11:01:37;13.30;1.00
1592;DHT22;789;51.612;7.510;2023-05-02T11:04:07;13.50;1.00
1592;DHT22;789;51.612;7.510;2023-05-02T11:06:35;13.50;1.00
1592;DHT22;789;51.612;7.510;2023-05-02T11:09:30;13.50;1.00
1592;DHT22;789;51.612;7.510;2023-05-02T11:11:58;13.60;1.00
1592;DHT22;789;51.612;7.510;2023-05-02T11:14:43;13.80;1.00
1592;DHT22;789;51.612;7.510;2023-05-02T11:17:12;14.00;1.00
1592;DHT22;789;51.612;7.510;2023-05-02T11:22:53;14.20;1.00
1592;DHT22;789;51.612;7.510;2023-05-02T11:25:39;14.30;1.00
1592;DHT22;789;51.612;7.510;2023-05-02T11:30:55;14.40;1.00
1592;DHT22;789;51.612;7.510;2023-05-02T11:33:22;14.50;1.00
1592;DHT22;789;51.612;7.510;2023-05-02T11:35:49;14.70;1.00
1592;DHT22;789;51.612;7.510;2023-05-02T11:38:18;14.80;1.00
1592;DHT22;789;51.612;7.510;2023-05-02T11:40:55;15.00;1.00
1592;DHT22;789;51.612;7.510;2023-05-02T11:43:23;15.00;1.00
1592;DHT22;789;51.612;7.510;2023-05-02T11:45:51;15.00;1.00
1592;DHT22;789;51.612;7.510;2023-05-02T11:48:21;15.10;1.00
1592;DHT22;789;51.612;7.510;2023-05-02T11:50:52;15.10;1.00
1592;DHT22;789;51.612;7.510;2023-05-02T11:53:20;15.10;1.00
1592;DHT22;789;51.612;7.510;2023-05-02T11:55:50;15.20;1.00
1592;DHT22;789;51.612;7.510;2023-05-02T11:58:18;15.20;1.00
1592;DHT22;789;51.612;7.510;2023-05-02T12:00:46;15.30;1.00
1592;DHT22;789;51.612;7.510;2023-05-02T12:03:27;15.50;1.00
1592;DHT22;789;51.612;7.510;2023-05-02T12:05:55;15.90;1.00
1592;DHT22;789;51.612;7.510;2023-05-02T12:08:23;16.10;1.00
1592;DHT22;789;51.612;7.510;2023-05-02T12:10:52;16.20;1.00
1592;DHT22;789;51.612;7.510;2023-05-02T12:13:21;16.00;1.00
1592;DHT22;789;51.612;7.510;2023-05-02T12:15:49;15.90;1.00
1592;DHT22;789;51.612;7.510;2023-05-02T12:18:16;15.90;1.00
1592;DHT22;789;51.612;7.510;2023-05-02T12:20:45;16.00;1.00
1592;DHT22;789;51.612;7.510;2023-05-02T12:23:12;16.10;1.00
1592;DHT22;789;51.612;7.510;2023-05-02T12:25:40;16.20;1.00
1592;DHT22;789;51.612;7.510;2023-05-02T12:28:08;16.40;1.00
1592;DHT22;789;51.612;7.510;2023-05-02T12:30:36;16.60;1.00
1592;DHT22;789;51.612;7.510;2023-05-02T12:33:04;16.90;1.00
1592;DHT22;789;51.612;7.510;2023-05-02T12:35:33;17.10;1.00
1592;DHT22;789;51.612;7.510;2023-05-02T12:38:13;17.30;1.00
1592;DHT22;789;51.612;7.510;2023-05-02T12:40:47;17.50;1.00
1592;DHT22;789;51.612;7.510;2023-05-02T12:43:17;17.60;1.00
1592;DHT22;789;51.612;7.510;2023-05-02T12:45:44;17.40;1.00
1592;DHT22;789;51.612;7.510;2023-05-02T12:48:20;17.40;1.00
1592;DHT22;789;51.612;7.510;2023-05-02T12:50:48;17.20;1.00
1592;DHT22;789;51.612;7.510;2023-05-02T12:53:16;17.10;1.00
1592;DHT22;789;51.612;7.510;2023-05-02T12:55:43;16.80;1.00
1592;DHT22;789;51.612;7.510;2023-05-02T12:58:11;16.60;1.00
1592;DHT22;789;51.612;7.510;2023-05-02T13:00:39;16.60;1.00
1592;DHT22;789;51.612;7.510;2023-05-02T13:03:07;16.40;1.00
1592;DHT22;789;51.612;7.510;2023-05-02T13:05:36;16.50;1.00
1592;DHT22;789;51.612;7.510;2023-05-02T13:08:04;16.50;1.00
1592;DHT22;789;51.612;7.510;2023-05-02T13:10:32;16.60;1.00
1592;DHT22;789;51.612;7.510;2023-05-02T13:13:01;16.60;1.00
1592;DHT22;789;51.612;7.510;2023-05-02T13:15:28;16.60;1.00
1592;DHT22;789;51.612;7.510;2023-05-02T13:17:54;16.60;1.00
1592;DHT22;789;51.612;7.510;2023-05-02T13:20:21;16.70;1.00
1592;DHT22;789;51.612;7.510;2023-05-02T13:22:48;16.80;1.00
1592;DHT22;789;51.612;7.510;2023-05-02T13:25:14;16.90;1.00
1592;DHT22;789;51.612;7.510;2023-05-02T13:27:43;16.90;1.00
1592;DHT22;789;51.612;7.510;2023-05-02T13:30:14;17.10;1.00
1592;DHT22;789;51.612;7.510;2023-05-02T13:32:40;17.10;1.00
1592;DHT22;789;51.612;7.510;2023-05-02T13:35:08;17.10;1.00
1592;DHT22;789;51.612;7.510;2023-05-02T13:37:40;17.10;1.00
1592;DHT22;789;51.612;7.510;2023-05-02T13:40:08;17.20;1.00
1592;DHT22;789;51.612;7.510;2023-05-02T13:42:35;17.20;1.00
1592;DHT22;789;51.612;7.510;2023-05-02T13:45:03;17.20;1.00
1592;DHT22;789;51.612;7.510;2023-05-02T13:47:32;17.30;1.00
1592;DHT22;789;51.612;7.510;2023-05-02T13:49:59;17.00;1.00
1592;DHT22;789;51.612;7.510;2023-05-02T13:52:25;16.80;1.00
1592;DHT22;789;51.612;7.510;2023-05-02T13:54:52;16.60;1.00
1592;DHT22;789;51.612;7.510;2023-05-02T13:57:19;16.50;1.00
1592;DHT22;789;51.612;7.510;2023-05-02T13:59:47;16.50;1.00
1592;DHT22;789;51.612;7.510;2023-05-02T14:02:16;16.50;1.00
1592;DHT22;789;51.612;7.510;2023-05-02T14:04:43;16.50;1.00
1592;DHT22;789;51.612;7.510;2023-05-02T14:07:09;16.40;1.00
1592;DHT22;789;51.612;7.510;2023-05-02T14:09:36;16.40;1.00
1592;DHT22;789;51.612;7.510;2023-05-02T14:12:03;16.30;1.00
1592;DHT22;789;51.612;7.510;2023-05-02T14:14:30;16.30;1.00
1592;DHT22;789;51.612;7.510;2023-05-02T14:16:57;16.20;1.00
1592;DHT22;789;51.612;7.510;2023-05-02T14:19:25;16.20;1.00
1592;DHT22;789;51.612;7.510;2023-05-02T14:21:52;16.20;1.00
1592;DHT22;789;51.612;7.510;2023-05-02T14:24:19;16.20;1.00
1592;DHT22;789;51.612;7.510;2023-05-02T14:26:45;16.20;1.00
1592;DHT22;789;51.612;7.510;2023-05-02T14:29:12;16.20;1.00
1592;DHT22;789;51.612;7.510;2023-05-02T14:31:41;16.00;1.00
1592;DHT22;789;51.612;7.510;2023-05-02T14:34:08;15.80;1.00
1592;DHT22;789;51.612;7.510;2023-05-02T14:36:37;15.70;1.00
1592;DHT22;789;51.612;7.510;2023-05-02T14:39:04;15.50;1.00
1592;DHT22;789;51.612;7.510;2023-05-02T14:41:30;15.40;1.00
1592;DHT22;789;51.612;7.510;2023-05-02T14:43:57;15.20;1.00
1592;DHT22;789;51.612;7.510;2023-05-02T14:46:24;15.00;1.00
1592;DHT22;789;51.612;7.510;2023-05-02T14:48:50;14.90;1.00
1592;DHT22;789;51.612;7.510;2023-05-02T14:51:17;14.80;1.00
1592;DHT22;789;51.612;7.510;2023-05-02T14:53:46;14.80;1.00
1592;DHT22;789;51.612;7.510;2023-05-02T14:56:14;14.90;1.00
1592;DHT22;789;51.612;7.510;2023-05-02T14:58:43;14.90;1.00
1592;DHT22;789;51.612;7.510;2023-05-02T15:01:17;15.00;1.00
1592;DHT22;789;51.612;7.510;2023-05-02T15:03:44;15.10;1.00
1592;DHT22;789;51.612;7.510;2023-05-02T15:06:12;15.10;1.00
1592;DHT22;789;51.612;7.510;2023-05-02T15:08:38;15.10;1.00
1592;DHT22;789;51.612;7.510;2023-05-02T15:11:08;15.00;1.00
1592;DHT22;789;51.612;7.510;2023-05-02T15:13:35;15.10;1.00
1592;DHT22;789;51.612;7.510;2023-05-02T15:16:02;15.20;1.00
1592;DHT22;789;51.612;7.510;2023-05-02T15:18:29;15.10;1.00
1592;DHT22;789;51.612;7.510;2023-05-02T15:20:56;14.90;1.00
1592;DHT22;789;51.612;7.510;2023-05-02T15:23:23;14.90;1.00
1592;DHT22;789;51.612;7.510;2023-05-02T15:25:50;14.80;1.00
1592;DHT22;789;51.612;7.510;2023-05-02T15:28:18;14.60;1.00
1592;DHT22;789;51.612;7.510;2023-05-02T15:30:45;14.50;1.00
1592;DHT22;789;51.612;7.510;2023-05-02T15:33:13;14.40;1.00
1592;DHT22;789;51.612;7.510;2023-05-02T15:35:47;14.40;1.00
1592;DHT22;789;51.612;7.510;2023-05-02T15:38:17;14.40;1.00
1592;DHT22;789;51.612;7.510;2023-05-02T15:40:44;14.50;1.00
1592;DHT22;789;51.612;7.510;2023-05-02T15:43:19;14.50;1.00
1592;DHT22;789;51.612;7.510;2023-05-02T15:45:49;14.50;1.00
1592;DHT22;789;51.612;7.510;2023-05-02T15:48:16;14.40;1.00
1592;DHT22;789;51.612;7.510;2023-05-02T15:50:43;14.30;1.00
1592;DHT22;789;51.612;7.510;2023-05-02T15:53:10;14.30;1.00
1592;DHT22;789;51.612;7.510;2023-05-02T15:55:36;14.20;1.00
1592;DHT22;789;51.612;7.510;2023-05-02T15:58:03;14.10;1.00
1592;DHT22;789;51.612;7.510;2023-05-02T16:00:31;14.10;1.00
1592;DHT22;789;51.612;7.510;2023-05-02T16:02:59;14.10;1.00
1592;DHT22;789;51.612;7.510;2023-05-02T16:05:26;14.20;1.00
1592;DHT22;789;51.612;7.510;2023-05-02T16:07:53;14.10;1.00
1592;DHT22;789;51.612;7.510;2023-05-02T16:10:20;14.10;1.00
1592;DHT22;789;51.612;7.510;2023-05-02T16:12:47;14.20;1.00
1592;DHT22;789;51.612;7.510;2023-05-02T16:15:13;14.10;1.00
1592;DHT22;789;51.612;7.510;2023-05-02T16:17:42;14.10;1.00
1592;DHT22;789;51.612;7.510;2023-05-02T16:20:09;14.10;1.00
1592;DHT22;789;51.612;7.510;2023-05-02T16:22:36;14.00;1.00
1592;DHT22;789;51.612;7.510;2023-05-02T16:25:03;14.00;1.00
1592;DHT22;789;51.612;7.510;2023-05-02T16:27:30;14.00;1.00
1592;DHT22;789;51.612;7.510;2023-05-02T16:29:58;14.00;1.00
1592;DHT22;789;51.612;7.510;2023-05-02T16:32:25;14.10;1.00
1592;DHT22;789;51.612;7.510;2023-05-02T16:34:57;14.20;1.00
1592;DHT22;789;51.612;7.510;2023-05-02T16:37:23;14.40;1.00
1592;DHT22;789;51.612;7.510;2023-05-02T16:39:50;14.30;1.00
1592;DHT22;789;51.612;7.510;2023-05-02T16:42:17;14.30;1.00
1592;DHT22;789;51.612;7.510;2023-05-02T16:44:44;14.40;1.00
1592;DHT22;789;51.612;7.510;2023-05-02T16:47:10;14.50;1.00
1592;DHT22;789;51.612;7.510;2023-05-02T16:49:37;14.60;1.00